16°C Temp
8°C Dewpoint
% Humidity
Temperature
21 KM/H
13 MPH
11 KTS
170°
Due South

Wind Speed
Clear
Conditions
Pressure 1026.92 (hPa) - 30.32 (in)
Visibility 0.0 (mi) - 0.0 (km)

Current Conditions
EGOV
Location 9(mi)
Metar :EGOV 290250Z AUTO 17011KT //// // NCD 16/08 Q1027
Fri 29th May 03:50 am

Airport
  Metar Aviation API Data Provided by https://www.checkwx.com/ PHP scripts by weather34.com ©2020